Time;durP1;ratioP1;P1;durP2;ratioP2;P2;SDS_P1;SDS_P2;PMS_P1;PMS_P2;Temp;Humidity;BMP_temperature;BMP_pressure;BME280_temperature;BME280_humidity;BME280_pressure;Samples;Min_cycle;Max_cycle;Signal;HPM_P1;HPM_P2
2021/08/17 00:02:03;;;;;;;5.38;3.05;;;;;;;;;;5111129;28;20024;-69
2021/08/17 00:04:30;;;;;;;7.35;2.90;;;;;;;;;;5110787;28;20058;-69
2021/08/17 00:06:57;;;;;;;5.90;3.17;;;;;;;;;;5110311;28;20020;-69
2021/08/17 00:09:23;;;;;;;7.60;3.28;;;;;;;;;;5110717;28;20036;-69
2021/08/17 00:11:49;;;;;;;7.75;3.92;;;;;;;;;;5110621;28;20099;-70
2021/08/17 00:14:15;;;;;;;5.38;3.47;;;;;;;;;;5110216;28;20026;-69
2021/08/17 00:16:41;;;;;;;5.70;2.40;;;;;;;;;;5111219;28;20501;-70
2021/08/17 00:19:08;;;;;;;6.78;3.28;;;;;;;;;;5110017;28;20028;-69
2021/08/17 00:21:34;;;;;;;6.15;3.20;;;;;;;;;;5110711;28;20077;-69
2021/08/17 00:24:00;;;;;;;6.50;3.17;;;;;;;;;;5110334;28;20044;-69
2021/08/17 00:26:26;;;;;;;6.50;3.13;;;;;;;;;;5110469;28;20491;-69
2021/08/17 00:28:52;;;;;;;6.70;2.92;;;;;;;;;;5110060;28;20044;-69
2021/08/17 00:31:18;;;;;;;7.88;2.95;;;;;;;;;;5110197;28;20024;-69
2021/08/17 00:33:45;;;;;;;4.63;2.67;;;;;;;;;;5109814;28;20035;-69
2021/08/17 00:36:11;;;;;;;6.97;3.30;;;;;;;;;;5110145;28;20059;-69
2021/08/17 00:38:37;;;;;;;7.38;3.28;;;;;;;;;;5110304;28;20032;-69
2021/08/17 00:41:05;;;;;;;7.60;3.40;;;;;;;;;;5099991;28;20476;-69
2021/08/17 00:43:31;;;;;;;6.30;2.90;;;;;;;;;;5096399;28;20506;-69
2021/08/17 00:45:58;;;;;;;7.20;3.33;;;;;;;;;;5096620;28;20031;-69
2021/08/17 00:49:50;;;;;;;4.97;2.55;;;;;;;;;;5112178;27;20461;-67
2021/08/17 00:52:17;;;;;;;7.05;3.50;;;;;;;;;;5110075;28;20081;-67
2021/08/17 00:54:43;;;;;;;6.00;3.13;;;;;;;;;;5110880;28;20095;-67
2021/08/17 00:57:13;;;;;;;4.97;3.03;;;;;;;;;;5109985;28;20031;-67
2021/08/17 01:00:48;;;;;;;6.95;3.83;;;;;;;;;;5111633;27;20396;-68
2021/08/17 01:03:14;;;;;;;6.53;3.20;;;;;;;;;;5109685;28;20115;-68
2021/08/17 01:05:40;;;;;;;8.88;3.75;;;;;;;;;;5109980;28;20480;-67
2021/08/17 01:08:09;;;;;;;8.30;4.32;;;;;;;;;;5111880;28;20475;-68
2021/08/17 01:10:37;;;;;;;6.57;3.90;;;;;;;;;;5109494;28;20016;-67
2021/08/17 01:13:03;;;;;;;6.63;3.90;;;;;;;;;;5111345;28;20028;-67
2021/08/17 01:15:29;;;;;;;8.82;4.07;;;;;;;;;;5111463;28;20387;-68
2021/08/17 01:17:56;;;;;;;5.15;3.47;;;;;;;;;;5111099;28;20023;-68
2021/08/17 01:20:22;;;;;;;7.30;3.80;;;;;;;;;;5111538;28;20552;-68
2021/08/17 01:22:49;;;;;;;6.53;3.33;;;;;;;;;;5110613;28;20031;-68
2021/08/17 01:25:15;;;;;;;7.18;3.70;;;;;;;;;;5110961;28;20024;-67
2021/08/17 01:27:43;;;;;;;5.63;3.47;;;;;;;;;;5110895;28;20464;-67
2021/08/17 01:30:10;;;;;;;8.25;3.70;;;;;;;;;;5110491;28;20020;-67
2021/08/17 01:35:17;;;;;;;7.25;4.20;;;;;;;;;;5071534;28;20396;-67
2021/08/17 01:37:43;;;;;;;6.65;3.95;;;;;;;;;;5070456;28;20031;-67
2021/08/17 01:40:11;;;;;;;6.15;3.50;;;;;;;;;;5070846;28;20469;-68
2021/08/17 01:42:41;;;;;;;9.57;3.50;;;;;;;;;;5070699;28;20520;-67
2021/08/17 01:45:08;;;;;;;10.18;4.13;;;;;;;;;;5070267;28;20028;-67
2021/08/17 01:47:34;;;;;;;7.63;3.47;;;;;;;;;;5070730;28;20021;-67
2021/08/17 01:50:01;;;;;;;7.25;3.92;;;;;;;;;;5069316;28;20036;-67
2021/08/17 01:52:28;;;;;;;6.20;3.50;;;;;;;;;;5070078;28;20020;-69
2021/08/17 01:54:54;;;;;;;6.07;3.65;;;;;;;;;;5070358;28;20150;-67
2021/08/17 01:57:21;;;;;;;6.35;3.38;;;;;;;;;;5070306;28;20022;-67
2021/08/17 01:59:47;;;;;;;7.03;4.00;;;;;;;;;;5069960;28;20025;-67
2021/08/17 02:02:13;;;;;;;8.93;3.63;;;;;;;;;;5070551;28;20048;-67
2021/08/17 02:04:39;;;;;;;5.82;3.63;;;;;;;;;;5069837;28;20024;-67
2021/08/17 02:07:05;;;;;;;8.05;3.92;;;;;;;;;;5068918;28;20111;-67
2021/08/17 02:09:31;;;;;;;6.15;3.90;;;;;;;;;;5069004;28;20499;-67
2021/08/17 02:11:58;;;;;;;6.75;4.00;;;;;;;;;;5068515;28;20025;-67
2021/08/17 02:16:23;;;;;;;7.72;4.05;;;;;;;;;;5111468;27;20428;-67
2021/08/17 02:18:49;;;;;;;8.75;3.72;;;;;;;;;;5109622;28;20081;-67
2021/08/17 02:21:15;;;;;;;4.82;3.35;;;;;;;;;;5111510;28;20023;-67
2021/08/17 02:25:28;;;;;;;6.05;3.50;;;;;;;;;;5111568;27;20462;-67
2021/08/17 02:27:54;;;;;;;5.78;3.30;;;;;;;;;;5110923;28;20514;-67
2021/08/17 02:30:20;;;;;;;7.65;3.45;;;;;;;;;;5127119;28;20028;-67
2021/08/17 02:32:46;;;;;;;5.97;3.60;;;;;;;;;;5126642;28;20024;-67
2021/08/17 02:35:12;;;;;;;6.68;3.70;;;;;;;;;;5111364;28;20379;-67
2021/08/17 02:37:39;;;;;;;6.07;3.47;;;;;;;;;;5126986;28;20107;-67
2021/08/17 02:40:05;;;;;;;7.10;3.22;;;;;;;;;;5110855;28;20028;-67
2021/08/17 02:42:33;;;;;;;9.55;3.58;;;;;;;;;;5111022;28;20026;-67
2021/08/17 02:44:59;;;;;;;5.18;3.35;;;;;;;;;;5111054;28;20116;-67
2021/08/17 02:47:26;;;;;;;9.43;3.60;;;;;;;;;;5110618;28;20109;-67
2021/08/17 02:49:52;;;;;;;8.85;3.30;;;;;;;;;;5110953;28;20020;-67
2021/08/17 02:52:19;;;;;;;7.75;3.22;;;;;;;;;;5110917;28;20032;-67
2021/08/17 02:55:48;;;;;;;6.28;3.50;;;;;;;;;;5111047;27;20469;-67
2021/08/17 02:58:16;;;;;;;10.48;3.47;;;;;;;;;;5111356;28;20379;-67
2021/08/17 03:00:42;;;;;;;6.45;3.22;;;;;;;;;;5111311;28;20044;-67
2021/08/17 03:03:08;;;;;;;7.95;3.70;;;;;;;;;;5110853;28;20028;-70
2021/08/17 03:05:35;;;;;;;6.72;3.47;;;;;;;;;;5127149;28;20023;-69
2021/08/17 03:08:04;;;;;;;5.07;3.00;;;;;;;;;;5110898;28;20125;-69
2021/08/17 03:10:31;;;;;;;7.60;3.10;;;;;;;;;;5111156;28;20075;-67
2021/08/17 03:12:58;;;;;;;8.38;3.70;;;;;;;;;;5111064;28;20047;-67
2021/08/17 03:15:24;;;;;;;10.55;4.25;;;;;;;;;;5110938;28;20066;-67
2021/08/17 03:19:30;;;;;;;8.50;4.13;;;;;;;;;;5111501;27;20419;-67
2021/08/17 03:21:56;;;;;;;10.38;3.90;;;;;;;;;;5110999;28;20027;-67
2021/08/17 03:24:22;;;;;;;6.80;3.88;;;;;;;;;;5111294;28;20099;-67
2021/08/17 03:28:58;;;;;;;11.35;4.32;;;;;;;;;;5111084;27;20888;-67
2021/08/17 03:31:24;;;;;;;7.95;3.60;;;;;;;;;;5111699;28;20054;-67
2021/08/17 03:35:58;;;;;;;9.85;4.10;;;;;;;;;;5111024;27;20544;-67
2021/08/17 03:38:24;;;;;;;10.13;3.33;;;;;;;;;;5110092;28;20023;-67
2021/08/17 03:41:12;;;;;;;9.75;4.10;;;;;;;;;;5111607;27;20509;-67
2021/08/17 03:43:39;;;;;;;8.55;3.90;;;;;;;;;;5111061;28;20027;-68
2021/08/17 03:46:05;;;;;;;7.78;4.00;;;;;;;;;;5111282;28;20483;-69
2021/08/17 03:48:32;;;;;;;9.18;4.18;;;;;;;;;;5111283;28;20038;-68
2021/08/17 03:50:58;;;;;;;9.63;4.55;;;;;;;;;;5110819;28;20098;-68
2021/08/17 03:53:26;;;;;;;12.90;4.72;;;;;;;;;;5111201;28;20020;-69
2021/08/17 03:55:52;;;;;;;9.18;4.20;;;;;;;;;;5111209;28;20132;-69
2021/08/17 04:01:17;;;;;;;8.25;3.65;;;;;;;;;;5111642;27;20393;-69
2021/08/17 04:03:44;;;;;;;7.82;4.05;;;;;;;;;;5111383;28;20028;-69
2021/08/17 04:06:10;;;;;;;7.78;4.00;;;;;;;;;;5110920;28;20023;-69
2021/08/17 04:08:39;;;;;;;11.90;5.65;;;;;;;;;;5111683;28;20027;-69
2021/08/17 04:11:05;;;;;;;8.40;4.35;;;;;;;;;;5111268;28;20024;-69
2021/08/17 04:13:31;;;;;;;7.10;4.05;;;;;;;;;;5109843;28;20027;-69
2021/08/17 04:16:38;;;;;;;7.50;3.78;;;;;;;;;;5111617;27;20414;-69
2021/08/17 04:20:58;;;;;;;7.22;4.43;;;;;;;;;;5112150;27;20513;-68
2021/08/17 04:23:24;;;;;;;7.30;3.58;;;;;;;;;;5110145;28;20024;-68
2021/08/17 04:25:50;;;;;;;6.68;3.58;;;;;;;;;;5110918;28;20035;-71
2021/08/17 04:28:17;;;;;;;8.30;4.07;;;;;;;;;;5111219;28;20027;-67
2021/08/17 04:30:43;;;;;;;10.45;3.90;;;;;;;;;;5111173;28;20027;-69
2021/08/17 04:33:09;;;;;;;6.75;3.97;;;;;;;;;;5110710;28;20091;-69
2021/08/17 04:36:45;;;;;;;6.55;3.47;;;;;;;;;;5071318;28;20457;-67
2021/08/17 04:39:11;;;;;;;6.72;3.85;;;;;;;;;;5071002;28;20429;-67
2021/08/17 04:42:40;;;;;;;6.95;3.90;;;;;;;;;;5111900;27;20405;-67
2021/08/17 04:46:15;;;;;;;7.07;3.47;;;;;;;;;;5111487;27;20400;-67
2021/08/17 04:48:41;;;;;;;6.80;4.10;;;;;;;;;;5111239;28;20035;-68
2021/08/17 04:51:09;;;;;;;8.60;3.80;;;;;;;;;;5111287;28;20028;-67
2021/08/17 04:53:35;;;;;;;9.82;5.43;;;;;;;;;;5111074;28;20062;-68
2021/08/17 04:56:01;;;;;;;8.75;5.05;;;;;;;;;;5109878;28;20065;-68
2021/08/17 04:58:28;;;;;;;7.72;4.40;;;;;;;;;;5111126;28;20035;-68
2021/08/17 05:01:09;;;;;;;8.70;4.18;;;;;;;;;;5070862;28;20399;-69
2021/08/17 05:03:36;;;;;;;10.75;4.15;;;;;;;;;;5069479;28;20416;-67
2021/08/17 05:06:02;;;;;;;9.05;3.95;;;;;;;;;;5067197;28;20031;-67
2021/08/17 05:08:28;;;;;;;8.48;3.60;;;;;;;;;;5069832;28;20377;-67
2021/08/17 05:10:54;;;;;;;8.45;4.40;;;;;;;;;;5070496;28;20028;-67
2021/08/17 05:13:20;;;;;;;8.23;4.28;;;;;;;;;;5070530;28;20017;-67
2021/08/17 05:15:47;;;;;;;7.28;3.42;;;;;;;;;;5070137;28;20013;-67
2021/08/17 05:18:13;;;;;;;6.82;4.40;;;;;;;;;;5070309;28;20028;-67
2021/08/17 05:20:39;;;;;;;5.72;3.55;;;;;;;;;;5070346;28;20060;-68
2021/08/17 05:23:05;;;;;;;9.10;4.00;;;;;;;;;;5069902;28;20052;-68
2021/08/17 05:25:31;;;;;;;7.03;3.95;;;;;;;;;;5070240;28;20104;-68
2021/08/17 05:27:58;;;;;;;5.72;3.13;;;;;;;;;;5068590;28;20377;-68
2021/08/17 05:30:24;;;;;;;7.85;3.60;;;;;;;;;;5068535;28;20025;-67
2021/08/17 05:32:51;;;;;;;6.97;3.30;;;;;;;;;;5070158;28;20021;-68
2021/08/17 05:35:17;;;;;;;6.60;3.33;;;;;;;;;;5069027;28;20362;-68
2021/08/17 05:37:44;;;;;;;7.43;3.38;;;;;;;;;;5068591;28;20041;-67
2021/08/17 05:40:10;;;;;;;6.53;3.65;;;;;;;;;;5068438;28;20107;-68
2021/08/17 05:42:37;;;;;;;5.30;3.15;;;;;;;;;;5068965;28;20021;-68
2021/08/17 05:45:03;;;;;;;6.32;4.18;;;;;;;;;;5069835;28;20025;-70
2021/08/17 05:47:31;;;;;;;5.68;3.25;;;;;;;;;;5069542;28;20035;-70
2021/08/17 05:49:57;;;;;;;9.30;3.55;;;;;;;;;;5069101;28;20036;-68
2021/08/17 05:52:24;;;;;;;6.10;3.65;;;;;;;;;;5069610;28;20028;-68
2021/08/17 05:54:50;;;;;;;6.25;3.65;;;;;;;;;;5068319;28;20389;-69
2021/08/17 05:57:16;;;;;;;7.07;3.08;;;;;;;;;;5067942;28;20035;-69
2021/08/17 05:59:42;;;;;;;5.20;3.17;;;;;;;;;;5068244;28;20048;-68
2021/08/17 06:02:09;;;;;;;7.25;3.65;;;;;;;;;;5069557;28;20458;-68
2021/08/17 06:06:49;;;;;;;7.38;3.72;;;;;;;;;;5111814;27;20846;-68
2021/08/17 06:09:15;;;;;;;6.13;3.20;;;;;;;;;;5110086;28;20401;-69
2021/08/17 06:11:42;;;;;;;5.40;3.58;;;;;;;;;;5110470;28;20020;-69
2021/08/17 06:14:08;;;;;;;6.85;3.60;;;;;;;;;;5106825;28;20031;-67
2021/08/17 06:16:34;;;;;;;6.25;3.50;;;;;;;;;;5111116;28;20016;-68
2021/08/17 06:19:01;;;;;;;6.88;3.80;;;;;;;;;;5110144;28;20027;-68
2021/08/17 06:21:27;;;;;;;6.05;3.40;;;;;;;;;;5106601;28;20024;-68
2021/08/17 06:23:53;;;;;;;6.47;3.88;;;;;;;;;;5110342;28;20032;-69
2021/08/17 06:26:20;;;;;;;6.82;3.47;;;;;;;;;;5109123;28;20032;-67
2021/08/17 06:28:46;;;;;;;6.35;3.78;;;;;;;;;;5110559;28;20020;-68
2021/08/17 06:33:05;;;;;;;5.60;3.30;;;;;;;;;;5070548;28;20396;-69
2021/08/17 06:35:31;;;;;;;7.45;3.88;;;;;;;;;;5069000;28;20024;-68
2021/08/17 06:37:58;;;;;;;6.72;3.80;;;;;;;;;;5068473;28;20079;-68
2021/08/17 06:40:24;;;;;;;6.28;3.17;;;;;;;;;;5068063;28;20747;-67
2021/08/17 06:42:50;;;;;;;5.38;3.40;;;;;;;;;;5068451;28;20096;-68
2021/08/17 06:45:16;;;;;;;5.47;3.33;;;;;;;;;;5068360;28;20060;-68
2021/08/17 06:47:47;;;;;;;7.35;3.55;;;;;;;;;;5068356;28;20067;-67
2021/08/17 06:50:46;;;;;;;5.95;3.50;;;;;;;;;;5108502;27;20393;-67
2021/08/17 06:53:36;;;;;;;8.02;3.17;;;;;;;;;;5110556;27;20521;-67
2021/08/17 06:56:02;;;;;;;6.43;3.35;;;;;;;;;;5109961;28;20031;-67
2021/08/17 06:58:28;;;;;;;6.63;3.80;;;;;;;;;;5110824;28;20039;-68
2021/08/17 07:00:54;;;;;;;7.15;3.67;;;;;;;;;;5110595;28;20039;-68
2021/08/17 07:03:20;;;;;;;8.15;3.67;;;;;;;;;;5107772;28;20074;-68
2021/08/17 07:05:47;;;;;;;7.60;3.45;;;;;;;;;;5107534;28;20028;-68
2021/08/17 07:08:13;;;;;;;6.93;3.30;;;;;;;;;;5102875;28;20062;-67
2021/08/17 07:10:40;;;;;;;5.97;3.65;;;;;;;;;;5110197;28;20575;-68
2021/08/17 07:13:06;;;;;;;9.27;3.30;;;;;;;;;;5108886;28;20036;-68
2021/08/17 07:15:33;;;;;;;5.15;2.75;;;;;;;;;;5110065;28;20024;-73
2021/08/17 07:17:59;;;;;;;6.78;3.78;;;;;;;;;;5107907;28;20028;-74
2021/08/17 07:20:25;;;;;;;12.10;3.33;;;;;;;;;;5109381;28;20080;-73
2021/08/17 07:22:51;;;;;;;8.38;3.30;;;;;;;;;;5106541;28;20024;-72
2021/08/17 07:25:17;;;;;;;7.55;4.03;;;;;;;;;;5106115;28;20020;-73
2021/08/17 07:29:00;;;;;;;7.47;4.00;;;;;;;;;;5102434;27;20404;-72
2021/08/17 07:31:26;;;;;;;7.78;3.70;;;;;;;;;;5111373;28;20077;-76
2021/08/17 07:33:53;;;;;;;6.43;3.58;;;;;;;;;;5100308;28;20056;-71
2021/08/17 07:36:19;;;;;;;5.43;3.25;;;;;;;;;;5098000;28;20469;-72
2021/08/17 07:38:45;;;;;;;4.82;3.08;;;;;;;;;;5088187;28;20095;-71
2021/08/17 07:41:11;;;;;;;9.35;3.90;;;;;;;;;;5087434;28;20476;-72
2021/08/17 07:43:37;;;;;;;8.05;3.75;;;;;;;;;;5085979;28;20066;-70
2021/08/17 07:46:04;;;;;;;8.68;3.33;;;;;;;;;;5088193;28;20078;-70
2021/08/17 07:48:30;;;;;;;5.25;3.10;;;;;;;;;;5089052;28;20068;-69
2021/08/17 07:50:56;;;;;;;5.97;3.22;;;;;;;;;;5088517;28;20028;-70
2021/08/17 07:53:22;;;;;;;6.25;3.40;;;;;;;;;;5095250;28;20107;-72
2021/08/17 07:55:48;;;;;;;;;;;;;;;;;;5111096;28;20044;-70
2021/08/17 07:58:14;;;;;;;;;;;;;;;;;;5110375;28;19908;-72
2021/08/17 08:00:40;;;;;;;;;;;;;;;;;;5110975;28;19915;-70
2021/08/17 08:03:06;;;;;;;;;;;;;;;;;;5110941;28;20279;-68
2021/08/17 08:05:32;;;;;;;;;;;;;;;;;;5110458;28;19911;-69
2021/08/17 08:07:58;;;;;;;;;;;;;;;;;;5103609;28;19919;-70
2021/08/17 08:10:24;;;;;;;;;;;;;;;;;;5090010;28;19905;-70
2021/08/17 08:12:50;;;;;;;;;;;;;;;;;;5087783;28;19909;-71
2021/08/17 08:15:16;;;;;;;;;;;;;;;;;;5090354;28;19989;-72
2021/08/17 08:17:42;;;;;;;;;;;;;;;;;;5089231;28;20411;-71
2021/08/17 08:20:08;;;;;;;;;;;;;;;;;;5090459;28;19943;-73
2021/08/17 08:22:35;;;;;;;;;;;;;;;;;;5090159;28;20311;-72
2021/08/17 08:25:01;;;;;;;;;;;;;;;;;;5089805;28;19905;-70
2021/08/17 08:27:27;;;;;;;;;;;;;;;;;;5088844;28;19939;-73
2021/08/17 08:29:53;;;;;;;;;;;;;;;;;;5090080;28;19904;-73
2021/08/17 08:32:19;;;;;;;;;;;;;;;;;;5090013;28;19963;-73
2021/08/17 08:34:45;;;;;;;;;;;;;;;;;;5089948;28;19999;-71
2021/08/17 08:37:11;;;;;;;;;;;;;;;;;;5088989;28;20360;-72
2021/08/17 08:39:38;;;;;;;;;;;;;;;;;;5074842;28;19904;-72
2021/08/17 08:42:05;;;;;;;;;;;;;;;;;;5073919;28;19912;-70
2021/08/17 08:44:31;;;;;;;;;;;;;;;;;;5074445;28;19915;-71
2021/08/17 08:46:57;;;;;;;;;;;;;;;;;;5073942;28;19908;-73
2021/08/17 08:49:23;;;;;;;;;;;;;;;;;;5074336;28;19998;-72
2021/08/17 08:51:49;;;;;;;;;;;;;;;;;;5074498;28;19908;-75
2021/08/17 08:54:15;;;;;;;;;;;;;;;;;;5073646;28;19910;-74
2021/08/17 08:56:41;;;;;;;;;;;;;;;;;;5076667;28;20356;-72
2021/08/17 08:59:07;;;;;;;;;;;;;;;;;;5075190;28;19904;-73
2021/08/17 09:01:33;;;;;;;;;;;;;;;;;;5075777;28;19904;-73
2021/08/17 09:03:58;;;;;;;;;;;;;;;;;;5076328;28;20361;-67
2021/08/17 09:06:24;;;;;;;;;;;;;;;;;;5075872;28;19936;-67
2021/08/17 09:08:50;;;;;;;;;;;;;;;;;;5075499;28;20347;-66
2021/08/17 09:11:16;;;;;;;;;;;;;;;;;;5074491;28;19910;-66
2021/08/17 09:13:43;;;;;;;6.10;3.38;;;;;;;;;;5074204;28;20952;-66
2021/08/17 09:16:29;;;;;;;6.00;3.28;;;;;;;;;;5075384;28;20029;-67
2021/08/17 09:18:56;;;;;;;6.60;3.45;;;;;;;;;;5075234;28;20161;-67
2021/08/17 09:21:41;;;;;;;6.35;3.63;;;;;;;;;;5074736;28;20048;-67
2021/08/17 09:24:34;;;;;;;5.68;3.55;;;;;;;;;;5073883;28;20020;-67
2021/08/17 09:27:02;;;;;;;8.07;4.15;;;;;;;;;;5071487;28;20044;-68
2021/08/17 09:29:38;;;;;;;6.13;3.90;;;;;;;;;;5074714;28;20031;-67
2021/08/17 09:32:17;;;;;;;6.40;4.43;;;;;;;;;;5066116;28;20056;-68
2021/08/17 09:34:45;;;;;;;7.00;3.70;;;;;;;;;;5074514;28;20504;-66
2021/08/17 09:37:12;;;;;;;6.50;4.18;;;;;;;;;;5074786;28;20029;-67
2021/08/17 09:39:48;;;;;;;7.68;4.30;;;;;;;;;;5075124;28;20078;-66
2021/08/17 09:42:22;;;;;;;6.97;4.35;;;;;;;;;;5074421;28;20085;-66
2021/08/17 09:45:09;;;;;;;6.05;3.92;;;;;;;;;;5074684;28;20017;-67
2021/08/17 09:47:36;;;;;;;7.15;4.32;;;;;;;;;;5074686;28;20036;-66
2021/08/17 09:50:20;;;;;;;7.43;4.72;;;;;;;;;;5073597;28;20431;-65
2021/08/17 09:52:47;;;;;;;7.03;4.22;;;;;;;;;;5072715;28;20070;-65
2021/08/17 09:55:14;;;;;;;6.75;4.20;;;;;;;;;;5073895;28;20024;-66
2021/08/17 09:57:41;;;;;;;7.35;4.32;;;;;;;;;;5073728;28;20028;-66
2021/08/17 10:00:13;;;;;;;8.80;4.93;;;;;;;;;;5072913;28;20067;-66
2021/08/17 10:02:40;;;;;;;7.50;4.03;;;;;;;;;;5073677;28;20111;-65
2021/08/17 10:05:06;;;;;;;8.27;4.13;;;;;;;;;;5073801;28;20025;-67
2021/08/17 10:07:32;;;;;;;7.80;4.80;;;;;;;;;;5072869;28;20123;-67
2021/08/17 10:09:59;;;;;;;6.65;4.20;;;;;;;;;;5073886;28;20473;-68
2021/08/17 10:12:25;;;;;;;7.40;4.60;;;;;;;;;;5074092;28;20025;-66
2021/08/17 10:14:51;;;;;;;8.02;4.25;;;;;;;;;;5074121;28;20013;-66
2021/08/17 10:17:18;;;;;;;7.20;4.55;;;;;;;;;;5073563;28;20040;-67
2021/08/17 10:19:44;;;;;;;7.57;4.47;;;;;;;;;;5074136;28;20430;-66
2021/08/17 10:22:11;;;;;;;8.13;4.20;;;;;;;;;;5073977;28;20380;-65
2021/08/17 10:24:40;;;;;;;7.63;4.65;;;;;;;;;;5073528;28;20095;-66
2021/08/17 10:27:25;;;;;;;7.07;4.00;;;;;;;;;;5073545;28;20090;-65
2021/08/17 10:30:03;;;;;;;8.77;4.38;;;;;;;;;;5073911;28;20059;-66
2021/08/17 10:32:36;;;;;;;7.65;4.03;;;;;;;;;;5073413;28;20021;-65
2021/08/17 10:35:02;;;;;;;11.65;4.68;;;;;;;;;;5073505;28;20469;-65
2021/08/17 10:37:29;;;;;;;6.22;3.95;;;;;;;;;;5073663;28;20106;-66
2021/08/17 10:39:55;;;;;;;6.55;4.05;;;;;;;;;;5072779;28;20067;-66
2021/08/17 10:42:23;;;;;;;8.15;3.90;;;;;;;;;;5072373;28;20048;-66
2021/08/17 10:44:49;;;;;;;10.00;4.45;;;;;;;;;;5073567;28;20029;-66
2021/08/17 10:47:32;;;;;;;9.13;4.72;;;;;;;;;;5072971;28;20392;-66
2021/08/17 10:49:59;;;;;;;7.55;4.55;;;;;;;;;;5073561;28;20086;-66
2021/08/17 10:52:29;;;;;;;8.80;4.50;;;;;;;;;;5071822;28;20016;-66
2021/08/17 10:55:14;;;;;;;8.50;4.43;;;;;;;;;;5073343;28;20023;-66
2021/08/17 10:58:09;;;;;;;6.80;4.35;;;;;;;;;;5073607;28;20135;-66
2021/08/17 11:00:45;;;;;;;7.38;4.47;;;;;;;;;;5060096;28;20047;-67
2021/08/17 11:03:12;;;;;;;7.25;4.60;;;;;;;;;;5072968;28;20016;-66
2021/08/17 11:05:54;;;;;;;7.43;4.43;;;;;;;;;;5072674;28;20483;-65
2021/08/17 11:08:32;;;;;;;8.88;4.35;;;;;;;;;;5072955;28;20039;-67
2021/08/17 11:10:59;;;;;;;7.07;4.78;;;;;;;;;;5072123;28;20024;-67
2021/08/17 11:13:26;;;;;;;7.50;4.28;;;;;;;;;;5072785;28;20354;-67
2021/08/17 11:16:11;;;;;;;6.40;4.25;;;;;;;;;;5071875;28;20017;-66
2021/08/17 11:18:54;;;;;;;9.32;5.30;;;;;;;;;;5073159;28;20492;-66
2021/08/17 11:21:30;;;;;;;8.45;5.43;;;;;;;;;;5072592;28;20111;-66
2021/08/17 11:24:10;;;;;;;7.35;4.60;;;;;;;;;;5073114;28;20028;-67
2021/08/17 11:26:37;;;;;;;9.93;5.30;;;;;;;;;;5073100;28;20025;-66
2021/08/17 11:29:04;;;;;;;8.23;5.00;;;;;;;;;;5072031;28;20062;-69
2021/08/17 11:31:30;;;;;;;8.27;5.28;;;;;;;;;;5073275;28;20048;-66
2021/08/17 11:34:15;;;;;;;7.28;5.20;;;;;;;;;;5073151;28;20032;-66
2021/08/17 11:36:41;;;;;;;8.15;4.90;;;;;;;;;;5071817;28;20507;-66
2021/08/17 11:39:17;;;;;;;7.90;4.85;;;;;;;;;;5071513;28;20028;-67
2021/08/17 11:41:43;;;;;;;9.18;5.10;;;;;;;;;;5072706;28;20023;-67
2021/08/17 11:44:10;;;;;;;8.60;4.93;;;;;;;;;;5072966;28;20025;-67
2021/08/17 11:46:36;;;;;;;7.70;5.05;;;;;;;;;;5073030;28;20512;-66
2021/08/17 11:49:18;;;;;;;11.80;5.85;;;;;;;;;;5072418;28;20036;-66
2021/08/17 11:51:45;;;;;;;9.07;5.90;;;;;;;;;;5072960;28;20098;-68
2021/08/17 11:54:15;;;;;;;9.88;5.20;;;;;;;;;;5072958;28;20489;-68
2021/08/17 11:56:41;;;;;;;7.97;5.18;;;;;;;;;;5072623;28;20021;-68
2021/08/17 11:59:07;;;;;;;8.82;5.40;;;;;;;;;;5071518;28;20457;-68
2021/08/17 12:01:34;;;;;;;9.57;5.35;;;;;;;;;;5071626;28;20036;-66
2021/08/17 12:04:09;;;;;;;9.00;5.97;;;;;;;;;;5072300;28;20035;-67
2021/08/17 12:06:35;;;;;;;8.43;6.00;;;;;;;;;;5072796;28;20028;-68
2021/08/17 12:09:20;;;;;;;11.35;6.38;;;;;;;;;;5072595;28;20044;-68
2021/08/17 12:11:59;;;;;;;10.70;6.47;;;;;;;;;;5070665;28;20079;-68
2021/08/17 12:14:25;;;;;;;12.38;7.70;;;;;;;;;;5074229;28;20024;-68
2021/08/17 12:16:55;;;;;;;9.73;6.72;;;;;;;;;;5076161;28;20024;-67
2021/08/17 12:19:21;;;;;;;11.00;6.88;;;;;;;;;;5075240;28;20035;-67
2021/08/17 12:21:48;;;;;;;12.27;7.38;;;;;;;;;;5076595;28;20079;-66
2021/08/17 12:24:27;;;;;;;8.10;6.13;;;;;;;;;;5075923;28;20091;-67
2021/08/17 12:26:57;;;;;;;10.40;5.85;;;;;;;;;;5076433;28;20080;-66
2021/08/17 12:29:23;;;;;;;8.88;6.15;;;;;;;;;;5073617;28;20020;-67
2021/08/17 12:31:54;;;;;;;11.00;6.32;;;;;;;;;;5075356;28;20032;-67
2021/08/17 12:34:21;;;;;;;9.80;5.72;;;;;;;;;;5075159;28;20055;-67
2021/08/17 12:36:51;;;;;;;10.65;5.60;;;;;;;;;;5074809;28;20024;-67
2021/08/17 12:39:22;;;;;;;9.23;5.65;;;;;;;;;;5075820;28;20028;-67
2021/08/17 12:41:52;;;;;;;8.45;5.53;;;;;;;;;;5076011;28;20052;-68
2021/08/17 12:44:45;;;;;;;9.18;5.63;;;;;;;;;;5075802;28;20033;-66
2021/08/17 12:47:12;;;;;;;16.55;5.88;;;;;;;;;;5072903;28;20128;-68
2021/08/17 12:49:41;;;;;;;8.80;5.07;;;;;;;;;;5076456;28;20025;-68
2021/08/17 12:52:23;;;;;;;10.73;6.00;;;;;;;;;;5074704;28;20050;-67
2021/08/17 12:54:49;;;;;;;8.35;4.72;;;;;;;;;;5075659;28;20055;-67
2021/08/17 12:57:16;;;;;;;9.77;4.95;;;;;;;;;;5075916;28;20035;-68
2021/08/17 12:59:43;;;;;;;8.25;5.20;;;;;;;;;;5075322;28;20027;-67
2021/08/17 13:02:09;;;;;;;8.68;4.93;;;;;;;;;;5075722;28;20025;-68
2021/08/17 13:04:35;;;;;;;8.15;5.20;;;;;;;;;;5076003;28;20021;-68
2021/08/17 13:07:02;;;;;;;8.95;5.40;;;;;;;;;;5073980;28;20039;-68
2021/08/17 13:09:28;;;;;;;9.30;5.18;;;;;;;;;;5075606;28;20024;-66
2021/08/17 13:11:55;;;;;;;8.52;5.28;;;;;;;;;;5075699;28;20021;-67
2021/08/17 13:14:21;;;;;;;8.77;5.10;;;;;;;;;;5073977;28;20036;-67
2021/08/17 13:16:48;;;;;;;7.50;4.93;;;;;;;;;;5075559;28;20389;-67
2021/08/17 13:19:14;;;;;;;7.95;5.30;;;;;;;;;;5076055;28;20020;-67
2021/08/17 13:21:40;;;;;;;7.72;5.10;;;;;;;;;;5075171;28;20550;-67
2021/08/17 13:24:06;;;;;;;7.30;4.85;;;;;;;;;;5075795;28;20404;-68
2021/08/17 13:26:32;;;;;;;8.98;4.88;;;;;;;;;;5075188;28;20025;-68
2021/08/17 13:28:58;;;;;;;6.75;4.35;;;;;;;;;;5074691;28;20123;-68
2021/08/17 13:31:25;;;;;;;6.35;4.75;;;;;;;;;;5075320;28;20531;-67
2021/08/17 13:33:51;;;;;;;8.35;4.90;;;;;;;;;;5075722;28;20032;-68
2021/08/17 13:36:17;;;;;;;8.27;4.28;;;;;;;;;;5075325;28;20021;-68
2021/08/17 13:38:43;;;;;;;10.27;5.63;;;;;;;;;;5073911;28;20044;-68
2021/08/17 13:41:10;;;;;;;9.18;5.15;;;;;;;;;;5074679;28;20117;-67
2021/08/17 13:43:37;;;;;;;6.90;4.90;;;;;;;;;;5075345;28;20419;-67
2021/08/17 13:46:03;;;;;;;9.75;4.68;;;;;;;;;;5075025;28;20101;-67
2021/08/17 13:48:29;;;;;;;6.18;4.28;;;;;;;;;;5074459;28;20062;-68
2021/08/17 13:50:56;;;;;;;7.07;4.10;;;;;;;;;;5074957;28;20065;-67
2021/08/17 13:53:22;;;;;;;5.95;3.70;;;;;;;;;;5074747;28;20036;-68
2021/08/17 13:55:48;;;;;;;8.82;4.57;;;;;;;;;;5074557;28;20029;-68
2021/08/17 13:58:14;;;;;;;8.93;5.07;;;;;;;;;;5074752;28;20027;-67
2021/08/17 14:00:41;;;;;;;8.32;5.13;;;;;;;;;;5074640;28;20028;-68
2021/08/17 14:03:07;;;;;;;8.68;4.43;;;;;;;;;;5074392;28;20032;-66
2021/08/17 14:05:34;;;;;;;9.35;5.20;;;;;;;;;;5074608;28;20012;-68
2021/08/17 14:08:00;;;;;;;9.48;5.13;;;;;;;;;;5074707;28;20037;-67
2021/08/17 14:10:27;;;;;;;9.05;5.28;;;;;;;;;;5072824;28;20385;-67
2021/08/17 14:12:53;;;;;;;7.22;4.55;;;;;;;;;;5074395;28;20472;-67
2021/08/17 14:15:19;;;;;;;8.80;4.70;;;;;;;;;;5074354;28;20020;-67
2021/08/17 14:17:46;;;;;;;9.35;5.00;;;;;;;;;;5073973;28;20035;-67
2021/08/17 14:20:12;;;;;;;7.55;4.90;;;;;;;;;;5074764;28;20477;-67
2021/08/17 14:22:38;;;;;;;8.93;4.97;;;;;;;;;;5074508;28;20048;-67
2021/08/17 14:25:05;;;;;;;8.88;4.53;;;;;;;;;;5073846;28;20468;-67
2021/08/17 14:27:31;;;;;;;8.25;5.30;;;;;;;;;;5072643;28;20139;-67
2021/08/17 14:29:57;;;;;;;7.45;4.90;;;;;;;;;;5073785;28;20078;-67
2021/08/17 14:32:23;;;;;;;7.72;4.50;;;;;;;;;;5074048;28;20553;-67
2021/08/17 14:34:49;;;;;;;8.90;5.10;;;;;;;;;;5072714;28;20020;-67
2021/08/17 14:37:16;;;;;;;8.52;5.60;;;;;;;;;;5071743;28;20051;-67
2021/08/17 14:39:42;;;;;;;8.38;5.32;;;;;;;;;;5073947;28;20031;-67
2021/08/17 14:42:08;;;;;;;10.57;5.80;;;;;;;;;;5073889;28;20041;-68
2021/08/17 14:44:34;;;;;;;10.98;5.47;;;;;;;;;;5073576;28;20028;-67
2021/08/17 14:47:01;;;;;;;9.45;5.45;;;;;;;;;;5073640;28;20032;-68
2021/08/17 14:49:27;;;;;;;10.10;5.80;;;;;;;;;;5073767;28;20063;-67
2021/08/17 14:51:53;;;;;;;10.15;5.60;;;;;;;;;;5072086;28;20024;-66
2021/08/17 14:54:20;;;;;;;9.90;5.45;;;;;;;;;;5073729;28;20099;-67
2021/08/17 14:56:46;;;;;;;9.73;5.25;;;;;;;;;;5072467;28;20025;-67
2021/08/17 14:59:13;;;;;;;8.05;4.72;;;;;;;;;;5073193;28;20017;-68
2021/08/17 15:01:39;;;;;;;10.05;5.50;;;;;;;;;;5073887;28;20032;-67
2021/08/17 15:04:05;;;;;;;8.82;5.15;;;;;;;;;;5073544;28;20029;-67
2021/08/17 15:06:32;;;;;;;8.57;5.22;;;;;;;;;;5073379;28;20032;-67
2021/08/17 15:08:58;;;;;;;11.15;5.72;;;;;;;;;;5073448;28;20036;-67
2021/08/17 15:11:25;;;;;;;8.15;4.60;;;;;;;;;;5073598;28;20549;-67
2021/08/17 15:13:51;;;;;;;10.93;5.25;;;;;;;;;;5073156;28;20531;-67
2021/08/17 15:16:17;;;;;;;11.40;4.25;;;;;;;;;;5073494;28;20021;-67
2021/08/17 15:18:48;;;;;;;7.85;3.80;;;;;;;;;;5073329;28;20489;-67
2021/08/17 15:21:15;;;;;;;9.60;4.28;;;;;;;;;;5072956;28;20027;-67
2021/08/17 15:23:41;;;;;;;8.32;4.45;;;;;;;;;;5072086;28;20028;-67
2021/08/17 15:26:07;;;;;;;12.07;4.63;;;;;;;;;;5073360;28;20032;-67